Map

Track Data

SID SEASON NUMBER BASIN SUBBASIN NAME ISO_TIME NATURE LAT LON WMO_WIND WMO_PRES WMO_AGENCY TRACK_TYPE DIST2LAND LANDFALL IFLAG USA_AGENCY USA_ATCF_ID USA_LAT USA_LON USA_RECORD USA_STATUS USA_WIND USA_PRES USA_SSHS USA_R34_NE USA_R34_SE USA_R34_SW USA_R34_NW USA_R50_NE USA_R50_SE USA_R50_SW USA_R50_NW USA_R64_NE USA_R64_SE USA_R64_SW USA_R64_NW USA_POCI USA_ROCI USA_RMW USA_EYE TOKYO_LAT TOKYO_LON TOKYO_GRADE TOKYO_WIND TOKYO_PRES TOKYO_R50_DIR TOKYO_R50_LONG TOKYO_R50_SHORT TOKYO_R30_DIR TOKYO_R30_LONG TOKYO_R30_SHORT TOKYO_LAND CMA_LAT CMA_LON CMA_CAT CMA_WIND CMA_PRES HKO_LAT HKO_LON HKO_CAT HKO_WIND HKO_PRES NEWDELHI_LAT NEWDELHI_LON NEWDELHI_GRADE NEWDELHI_WIND NEWDELHI_PRES NEWDELHI_CI NEWDELHI_DP NEWDELHI_POCI REUNION_LAT REUNION_LON REUNION_TYPE REUNION_WIND REUNION_PRES REUNION_TNUM REUNION_CI REUNION_RMW REUNION_R34_NE REUNION_R34_SE REUNION_R34_SW REUNION_R34_NW REUNION_R50_NE REUNION_R50_SE REUNION_R50_SW REUNION_R50_NW REUNION_R64_NE REUNION_R64_SE REUNION_R64_SW REUNION_R64_NW BOM_LAT BOM_LON BOM_TYPE BOM_WIND BOM_PRES BOM_TNUM BOM_CI BOM_RMW BOM_R34_NE BOM_R34_SE BOM_R34_SW BOM_R34_NW BOM_R50_NE BOM_R50_SE BOM_R50_SW BOM_R50_NW BOM_R64_NE BOM_R64_SE BOM_R64_SW BOM_R64_NW BOM_ROCI BOM_POCI BOM_EYE BOM_POS_METHOD BOM_PRES_METHOD NADI_LAT NADI_LON NADI_CAT NADI_WIND NADI_PRES WELLINGTON_LAT WELLINGTON_LON WELLINGTON_WIND WELLINGTON_PRES DS824_LAT DS824_LON DS824_STAGE DS824_WIND DS824_PRES TD9636_LAT TD9636_LON TD9636_STAGE TD9636_WIND TD9636_PRES TD9635_LAT TD9635_LON TD9635_WIND TD9635_PRES TD9635_ROCI NEUMANN_LAT NEUMANN_LON NEUMANN_CLASS NEUMANN_WIND NEUMANN_PRES MLC_LAT MLC_LON MLC_CLASS MLC_WIND MLC_PRES USA_GUST BOM_GUST BOM_GUST_PER REUNION_GUST REUNION_GUST_PER USA_SEAHGT USA_SEARAD_NE USA_SEARAD_SE USA_SEARAD_SW USA_SEARAD_NW STORM_SPEED STORM_DIR
1881129S07094 1881 15 SI WA NOT_NAMED 1881-05-09 00:00:00 TS -6.70000 94.3000 main 757 757 _________O____ -1 -6.70000 94.3000 TC 7 256
1881129S07094 1881 15 SI WA NOT_NAMED 1881-05-09 03:00:00 TS -6.79257 93.9375 main 796 796 _________P____ -1 -6.79257 93.9375 TC 7 254
1881129S07094 1881 15 SI WA NOT_NAMED 1881-05-09 06:00:00 TS -6.90000 93.6000 main 827 827 _________O____ -1 -6.90000 93.6000 TC 7 249
1881129S07094 1881 15 SI WA NOT_NAMED 1881-05-09 09:00:00 TS -7.03495 93.3000 main 859 859 _________P____ -1 -7.03495 93.3000 TC 7 243
1881129S07094 1881 15 SI WA NOT_NAMED 1881-05-09 12:00:00 TS -7.20000 93.0000 main 899 899 _________O____ -1 -7.20000 93.0000 TC 7 241
1881129S07094 1881 15 SI WA NOT_NAMED 1881-05-09 15:00:00 TS -7.39251 92.6500 main 938 938 _________P____ -1 -7.39251 92.6500 TC 8 240
1881129S07094 1881 15 SI WA NOT_NAMED 1881-05-09 18:00:00 TS -7.60000 92.3000 main 986 986 _________O____ -1 -7.60000 92.3000 TC 8 239
1881129S07094 1881 15 SI WA NOT_NAMED 1881-05-09 21:00:00 TS -7.79248 91.9850 main 1025 1025 _________P____ -1 -7.79248 91.9850 TC 7 236
1881129S07094 1881 15 SI WA NOT_NAMED 1881-05-10 00:00:00 TS -8.00000 91.7000 main 1065 1065 _________O____ -1 -8.00000 91.7000 TC 7 230
1881129S07094 1881 15 SI WA NOT_NAMED 1881-05-10 03:00:00 TS -8.24248 91.4350 main 1105 1105 _________P____ -1 -8.24248 91.4350 TC 7 225
1881129S07094 1881 15 SI WA NOT_NAMED 1881-05-10 06:00:00 TS -8.50000 91.2000 main 1143 1143 _________O____ -1 -8.50000 91.2000 TC 7 222
1881129S07094 1881 15 SI WA NOT_NAMED 1881-05-10 09:00:00 TS -8.74249 90.9850 main 1175 1175 _________P____ -1 -8.74249 90.9850 TC 6 218
1881129S07094 1881 15 SI WA NOT_NAMED 1881-05-10 12:00:00 TS -9.00000 90.8000 main 1213 1213 _________O____ -1 -9.00000 90.8000 TC 7 212
1881129S07094 1881 15 SI WA NOT_NAMED 1881-05-10 15:00:00 TS -9.29249 90.6350 main 1252 1252 _________P____ -1 -9.29249 90.6350 TC 7 206
1881129S07094 1881 15 SI WA NOT_NAMED 1881-05-10 18:00:00 TS -9.60000 90.5000 main 1283 1283 _________O____ -1 -9.60000 90.5000 TC 7 202
1881129S07094 1881 15 SI WA NOT_NAMED 1881-05-10 21:00:00 TS -9.89999 90.3850 main 1314 1314 _________P____ -1 -9.89999 90.3850 TC 6 198
1881129S07094 1881 15 SI WA NOT_NAMED 1881-05-11 00:00:00 TS -10.2000 90.3000 main 1345 1345 _________O____ -1 -10.2000 90.3000 TC 6 194
1881129S07094 1881 15 SI WA NOT_NAMED 1881-05-11 03:00:00 TS -10.5000 90.2350 main 1377 1377 _________P____ -1 -10.5000 90.2350 TC 6 189
1881129S07094 1881 15 SI WA NOT_NAMED 1881-05-11 06:00:00 TS -10.8000 90.2000 main 1401 1401 _________O____ -1 -10.8000 90.2000 TC 6 185
1881129S07094 1881 15 SI WA NOT_NAMED 1881-05-11 09:00:00 TS -11.1000 90.1850 main 1425 1425 _________P____ -1 -11.1000 90.1850 TC 6 179
1881129S07094 1881 15 SI WA NOT_NAMED 1881-05-11 12:00:00 TS -11.4000 90.2000 main 1450 1450 _________O____ -1 -11.4000 90.2000 TC 6 174
1881129S07094 1881 15 SI WA NOT_NAMED 1881-05-11 15:00:00 TS -11.7075 90.2425 main 1475 1475 _________P____ -1 -11.7075 90.2425 TC 6 171
1881129S07094 1881 15 SI WA NOT_NAMED 1881-05-11 18:00:00 TS -12.0000 90.3000 main 1494 1494 _________O____ -1 -12.0000 90.3000 TC 6 169
1881129S07094 1881 15 SI WA NOT_NAMED 1881-05-11 21:00:00 TS -12.2600 90.3525 main 1513 1513 _________P____ -1 -12.2600 90.3525 TC 5 169
1881129S07094 1881 15 SI WA NOT_NAMED 1881-05-12 00:00:00 TS -12.5000 90.4000 main 1530 _________O____ -1 -12.5000 90.4000 TC 5 170

About IBTrACS Database

This database is a web-friendly format of International Best Track Archive for Climate Stewardship (IBTrACS), a global best track data archive curated by NOAA dating back to 1842.

Updated: 2021-11-26